Wheelerville, New York
Current Conditions -  °F | °C
As of 9:15 AM on Tuesday 27 Jan 2015 (Local Time) from KNY0 Reporting Station
Overcast Overcast  
Wind Chill: 16°   Ceiling: 8500
Heat Index: 16°   Visibility: 10mi
Dew Point:   Wind: 0mph
Humidity: 49%   Direction: NA
Pressure: 29.79"   Gusts: NA
Location:  43.2783°N, 74.5481°W
Report Text: KNY0 271415Z AUTO 00000KT 10SM SCT075 OVC085 M09/M18 A2979 RMK AO2 T10901180
Loading
Personal Weather Stations






























Interactive Weather Map New forecast layout! Learn more

10-Day Weather Forecast

Advertisements
Track Severe Weather on mobile